Terminal Aerodrome Forecast
Issued by NWS Spokane, WA

Home | Current Version | Previous Version | Text Only | Print | Product List | Glossary On
Versions: 1 2 3 4 5 6 7 8 9 10 11 12 13 14 15 16 17 18 19 20 21 22 23 24 25 26 27 28 29 30 31 32 33 34 35 36 37 38 39 40
000
FTUS46 KOTX 211752 CCA
TAFGEG
TAF COR
KGEG 211752Z 2118/2218 23012G16KT P6SM OVC010
     FM212100 22014G20KT P6SM BKN030
     FM212300 22013G19KT P6SM BKN035
     FM220400 15007KT P6SM FEW040 SCT200
     FM220900 14009KT P6SM SCT100 BKN130 OVC200
     FM221400 14013KT P6SM BKN080 OVC100=

USA.gov is the U.S. government's official web portal to all federal, state and local government web resources and services.